sensor_id;sensor_type;location;lat;lon;timestamp;P1;durP1;ratioP1;P2;durP2;ratioP2
55684;SDS011;41883;49.544;8.646;2023-05-17T00:01:37;2.78;;;1.20;;
55684;SDS011;41883;49.544;8.646;2023-05-17T00:04:02;3.20;;;1.20;;
55684;SDS011;41883;49.544;8.646;2023-05-17T00:06:27;2.60;;;1.20;;
55684;SDS011;41883;49.544;8.646;2023-05-17T00:08:53;3.30;;;1.55;;
55684;SDS011;41883;49.544;8.646;2023-05-17T00:11:18;7.15;;;2.50;;
55684;SDS011;41883;49.544;8.646;2023-05-17T00:13:43;4.95;;;1.92;;
55684;SDS011;41883;49.544;8.646;2023-05-17T00:16:09;4.57;;;1.98;;
55684;SDS011;41883;49.544;8.646;2023-05-17T00:18:34;4.90;;;2.00;;
55684;SDS011;41883;49.544;8.646;2023-05-17T00:21:00;4.90;;;2.03;;
55684;SDS011;41883;49.544;8.646;2023-05-17T00:23:25;3.95;;;1.58;;
55684;SDS011;41883;49.544;8.646;2023-05-17T00:25:50;3.15;;;1.38;;
55684;SDS011;41883;49.544;8.646;2023-05-17T00:28:16;7.05;;;1.83;;
55684;SDS011;41883;49.544;8.646;2023-05-17T00:30:41;5.00;;;1.50;;
55684;SDS011;41883;49.544;8.646;2023-05-17T00:33:06;3.38;;;1.52;;
55684;SDS011;41883;49.544;8.646;2023-05-17T00:35:32;7.30;;;2.20;;
55684;SDS011;41883;49.544;8.646;2023-05-17T00:37:58;6.28;;;2.35;;
55684;SDS011;41883;49.544;8.646;2023-05-17T00:40:23;6.68;;;2.65;;
55684;SDS011;41883;49.544;8.646;2023-05-17T00:42:49;15.32;;;4.07;;
55684;SDS011;41883;49.544;8.646;2023-05-17T00:45:14;17.10;;;4.45;;
55684;SDS011;41883;49.544;8.646;2023-05-17T00:47:39;11.05;;;3.65;;
55684;SDS011;41883;49.544;8.646;2023-05-17T00:50:05;10.77;;;3.60;;
55684;SDS011;41883;49.544;8.646;2023-05-17T00:52:31;9.50;;;3.33;;
55684;SDS011;41883;49.544;8.646;2023-05-17T00:54:56;12.10;;;3.70;;
55684;SDS011;41883;49.544;8.646;2023-05-17T00:57:22;9.07;;;3.47;;
55684;SDS011;41883;49.544;8.646;2023-05-17T00:59:48;8.20;;;2.80;;
55684;SDS011;41883;49.544;8.646;2023-05-17T01:02:13;4.97;;;2.13;;
55684;SDS011;41883;49.544;8.646;2023-05-17T01:04:38;6.03;;;2.25;;
55684;SDS011;41883;49.544;8.646;2023-05-17T01:07:05;5.50;;;1.50;;
55684;SDS011;41883;49.544;8.646;2023-05-17T01:09:30;3.17;;;1.70;;
55684;SDS011;41883;49.544;8.646;2023-05-17T01:14:52;1.90;;;1.17;;
55684;SDS011;41883;49.544;8.646;2023-05-17T01:30:30;2.75;;;1.38;;
55684;SDS011;41883;49.544;8.646;2023-05-17T01:32:57;4.35;;;1.35;;
55684;SDS011;41883;49.544;8.646;2023-05-17T01:35:26;4.35;;;1.80;;
55684;SDS011;41883;49.544;8.646;2023-05-17T01:37:51;2.45;;;1.50;;
55684;SDS011;41883;49.544;8.646;2023-05-17T01:40:18;2.72;;;1.25;;
55684;SDS011;41883;49.544;8.646;2023-05-17T01:42:44;4.28;;;1.73;;
55684;SDS011;41883;49.544;8.646;2023-05-17T01:45:16;2.63;;;1.40;;
55684;SDS011;41883;49.544;8.646;2023-05-17T01:50:20;2.85;;;1.40;;
55684;SDS011;41883;49.544;8.646;2023-05-17T01:52:54;5.60;;;1.80;;
55684;SDS011;41883;49.544;8.646;2023-05-17T01:58:19;2.90;;;1.20;;
55684;SDS011;41883;49.544;8.646;2023-05-17T02:00:46;3.72;;;1.40;;
55684;SDS011;41883;49.544;8.646;2023-05-17T02:03:16;3.45;;;1.40;;
55684;SDS011;41883;49.544;8.646;2023-05-17T02:05:42;3.15;;;1.40;;
55684;SDS011;41883;49.544;8.646;2023-05-17T02:08:08;4.22;;;1.80;;
55684;SDS011;41883;49.544;8.646;2023-05-17T02:10:33;3.70;;;1.50;;
55684;SDS011;41883;49.544;8.646;2023-05-17T02:12:58;3.60;;;1.45;;
55684;SDS011;41883;49.544;8.646;2023-05-17T02:15:24;2.72;;;1.60;;
55684;SDS011;41883;49.544;8.646;2023-05-17T02:17:49;4.47;;;1.83;;
55684;SDS011;41883;49.544;8.646;2023-05-17T02:20:15;3.75;;;1.80;;
55684;SDS011;41883;49.544;8.646;2023-05-17T02:22:40;2.50;;;1.30;;
55684;SDS011;41883;49.544;8.646;2023-05-17T02:27:31;1.98;;;1.17;;
55684;SDS011;41883;49.544;8.646;2023-05-17T02:29:56;2.53;;;1.23;;
55684;SDS011;41883;49.544;8.646;2023-05-17T02:32:21;4.45;;;1.27;;
55684;SDS011;41883;49.544;8.646;2023-05-17T02:34:46;3.78;;;1.35;;
55684;SDS011;41883;49.544;8.646;2023-05-17T02:37:12;3.67;;;1.30;;
55684;SDS011;41883;49.544;8.646;2023-05-17T02:39:37;3.53;;;1.50;;
55684;SDS011;41883;49.544;8.646;2023-05-17T02:42:02;3.30;;;1.40;;
55684;SDS011;41883;49.544;8.646;2023-05-17T02:44:28;3.83;;;1.70;;
55684;SDS011;41883;49.544;8.646;2023-05-17T02:46:53;3.00;;;1.42;;
55684;SDS011;41883;49.544;8.646;2023-05-17T02:49:18;3.50;;;1.42;;
55684;SDS011;41883;49.544;8.646;2023-05-17T02:51:44;4.40;;;1.63;;
55684;SDS011;41883;49.544;8.646;2023-05-17T02:54:09;3.38;;;1.50;;
55684;SDS011;41883;49.544;8.646;2023-05-17T02:56:34;2.27;;;1.10;;
55684;SDS011;41883;49.544;8.646;2023-05-17T02:59:00;2.27;;;1.10;;
55684;SDS011;41883;49.544;8.646;2023-05-17T03:03:50;2.65;;;1.35;;
55684;SDS011;41883;49.544;8.646;2023-05-17T03:06:16;3.15;;;1.33;;
55684;SDS011;41883;49.544;8.646;2023-05-17T03:08:41;3.42;;;1.67;;
55684;SDS011;41883;49.544;8.646;2023-05-17T03:11:06;3.42;;;1.90;;
55684;SDS011;41883;49.544;8.646;2023-05-17T03:13:31;7.22;;;2.60;;
55684;SDS011;41883;49.544;8.646;2023-05-17T03:15:57;5.03;;;2.58;;
55684;SDS011;41883;49.544;8.646;2023-05-17T03:18:22;4.90;;;1.92;;
55684;SDS011;41883;49.544;8.646;2023-05-17T03:20:47;3.50;;;1.80;;
55684;SDS011;41883;49.544;8.646;2023-05-17T03:23:12;4.55;;;1.50;;
55684;SDS011;41883;49.544;8.646;2023-05-17T03:25:38;4.40;;;1.70;;
55684;SDS011;41883;49.544;8.646;2023-05-17T03:30:28;2.97;;;1.50;;
55684;SDS011;41883;49.544;8.646;2023-05-17T03:32:54;3.05;;;1.60;;
55684;SDS011;41883;49.544;8.646;2023-05-17T03:35:19;3.55;;;1.73;;
55684;SDS011;41883;49.544;8.646;2023-05-17T03:37:44;3.50;;;1.90;;
55684;SDS011;41883;49.544;8.646;2023-05-17T03:40:10;3.70;;;1.77;;
55684;SDS011;41883;49.544;8.646;2023-05-17T03:42:36;5.10;;;1.80;;
55684;SDS011;41883;49.544;8.646;2023-05-17T03:45:02;3.15;;;1.65;;
55684;SDS011;41883;49.544;8.646;2023-05-17T03:47:28;2.88;;;1.40;;
55684;SDS011;41883;49.544;8.646;2023-05-17T03:49:53;2.10;;;1.30;;
55684;SDS011;41883;49.544;8.646;2023-05-17T03:52:19;5.05;;;1.92;;
55684;SDS011;41883;49.544;8.646;2023-05-17T03:54:44;5.03;;;2.22;;
55684;SDS011;41883;49.544;8.646;2023-05-17T03:57:09;4.30;;;2.13;;
55684;SDS011;41883;49.544;8.646;2023-05-17T03:59:35;4.70;;;2.05;;
55684;SDS011;41883;49.544;8.646;2023-05-17T04:02:00;5.30;;;2.03;;
55684;SDS011;41883;49.544;8.646;2023-05-17T04:04:25;3.88;;;1.63;;
55684;SDS011;41883;49.544;8.646;2023-05-17T04:06:51;3.25;;;1.80;;
55684;SDS011;41883;49.544;8.646;2023-05-17T04:09:16;4.20;;;2.00;;
55684;SDS011;41883;49.544;8.646;2023-05-17T04:11:42;3.63;;;1.90;;
55684;SDS011;41883;49.544;8.646;2023-05-17T04:57:46;3.57;;;2.20;;
55684;SDS011;41883;49.544;8.646;2023-05-17T05:00:11;5.35;;;2.72;;
55684;SDS011;41883;49.544;8.646;2023-05-17T05:02:39;4.05;;;2.05;;
55684;SDS011;41883;49.544;8.646;2023-05-17T05:05:04;6.00;;;2.25;;
55684;SDS011;41883;49.544;8.646;2023-05-17T05:07:30;3.88;;;2.35;;
55684;SDS011;41883;49.544;8.646;2023-05-17T05:09:56;4.65;;;2.72;;
55684;SDS011;41883;49.544;8.646;2023-05-17T05:12:21;4.43;;;2.13;;
55684;SDS011;41883;49.544;8.646;2023-05-17T05:14:46;4.38;;;2.25;;
55684;SDS011;41883;49.544;8.646;2023-05-17T05:17:11;3.40;;;2.05;;
55684;SDS011;41883;49.544;8.646;2023-05-17T05:19:37;5.10;;;2.08;;
55684;SDS011;41883;49.544;8.646;2023-05-17T05:22:02;4.95;;;2.30;;
55684;SDS011;41883;49.544;8.646;2023-05-17T05:24:27;6.00;;;2.50;;
55684;SDS011;41883;49.544;8.646;2023-05-17T05:26:53;5.28;;;2.63;;
55684;SDS011;41883;49.544;8.646;2023-05-17T05:29:18;3.95;;;2.28;;
55684;SDS011;41883;49.544;8.646;2023-05-17T05:31:43;4.50;;;2.53;;
55684;SDS011;41883;49.544;8.646;2023-05-17T05:34:09;4.30;;;1.93;;
55684;SDS011;41883;49.544;8.646;2023-05-17T05:36:34;4.17;;;1.80;;
55684;SDS011;41883;49.544;8.646;2023-05-17T05:39:00;4.00;;;2.10;;
55684;SDS011;41883;49.544;8.646;2023-05-17T05:41:26;4.20;;;2.10;;
55684;SDS011;41883;49.544;8.646;2023-05-17T05:43:51;4.37;;;2.20;;
55684;SDS011;41883;49.544;8.646;2023-05-17T05:46:16;5.15;;;2.30;;
55684;SDS011;41883;49.544;8.646;2023-05-17T05:48:42;5.55;;;1.90;;
55684;SDS011;41883;49.544;8.646;2023-05-17T05:51:14;3.97;;;2.08;;
55684;SDS011;41883;49.544;8.646;2023-05-17T05:53:40;5.10;;;2.50;;
55684;SDS011;41883;49.544;8.646;2023-05-17T05:56:05;4.40;;;2.33;;
55684;SDS011;41883;49.544;8.646;2023-05-17T05:58:31;3.33;;;2.00;;
55684;SDS011;41883;49.544;8.646;2023-05-17T06:00:58;5.38;;;2.53;;
55684;SDS011;41883;49.544;8.646;2023-05-17T06:03:24;6.05;;;2.70;;
55684;SDS011;41883;49.544;8.646;2023-05-17T06:05:49;5.00;;;2.30;;
55684;SDS011;41883;49.544;8.646;2023-05-17T06:08:15;6.80;;;2.80;;
55684;SDS011;41883;49.544;8.646;2023-05-17T06:10:41;5.65;;;2.67;;
55684;SDS011;41883;49.544;8.646;2023-05-17T06:13:06;4.53;;;2.45;;
55684;SDS011;41883;49.544;8.646;2023-05-17T06:15:31;5.45;;;2.60;;
55684;SDS011;41883;49.544;8.646;2023-05-17T06:17:57;4.78;;;2.10;;
55684;SDS011;41883;49.544;8.646;2023-05-17T06:20:23;6.07;;;2.70;;
55684;SDS011;41883;49.544;8.646;2023-05-17T06:22:48;6.60;;;2.50;;
55684;SDS011;41883;49.544;8.646;2023-05-17T06:25:13;5.28;;;2.20;;
55684;SDS011;41883;49.544;8.646;2023-05-17T06:27:39;4.85;;;2.38;;
55684;SDS011;41883;49.544;8.646;2023-05-17T06:30:05;5.68;;;2.50;;
55684;SDS011;41883;49.544;8.646;2023-05-17T06:32:30;3.58;;;2.13;;
55684;SDS011;41883;49.544;8.646;2023-05-17T06:34:56;8.55;;;3.05;;
55684;SDS011;41883;49.544;8.646;2023-05-17T06:37:22;5.72;;;2.45;;
55684;SDS011;41883;49.544;8.646;2023-05-17T06:39:49;15.25;;;3.33;;
55684;SDS011;41883;49.544;8.646;2023-05-17T06:42:15;6.63;;;3.10;;
55684;SDS011;41883;49.544;8.646;2023-05-17T06:44:41;9.85;;;3.63;;
55684;SDS011;41883;49.544;8.646;2023-05-17T06:47:06;7.20;;;2.67;;
55684;SDS011;41883;49.544;8.646;2023-05-17T06:49:31;5.18;;;2.70;;
55684;SDS011;41883;49.544;8.646;2023-05-17T06:51:57;4.40;;;2.60;;
55684;SDS011;41883;49.544;8.646;2023-05-17T06:54:27;6.53;;;3.15;;
55684;SDS011;41883;49.544;8.646;2023-05-17T06:56:52;6.18;;;3.35;;
55684;SDS011;41883;49.544;8.646;2023-05-17T06:59:17;5.70;;;2.70;;
55684;SDS011;41883;49.544;8.646;2023-05-17T07:01:43;7.10;;;2.90;;
55684;SDS011;41883;49.544;8.646;2023-05-17T07:04:08;7.10;;;2.80;;
55684;SDS011;41883;49.544;8.646;2023-05-17T07:06:33;6.03;;;3.00;;
55684;SDS011;41883;49.544;8.646;2023-05-17T07:08:59;4.95;;;2.92;;
55684;SDS011;41883;49.544;8.646;2023-05-17T07:11:24;8.18;;;2.88;;
55684;SDS011;41883;49.544;8.646;2023-05-17T07:13:49;9.93;;;3.70;;
55684;SDS011;41883;49.544;8.646;2023-05-17T07:16:14;5.70;;;3.00;;
55684;SDS011;41883;49.544;8.646;2023-05-17T07:18:40;10.67;;;3.30;;
55684;SDS011;41883;49.544;8.646;2023-05-17T07:21:05;7.65;;;3.38;;
55684;SDS011;41883;49.544;8.646;2023-05-17T07:23:30;7.28;;;2.63;;
55684;SDS011;41883;49.544;8.646;2023-05-17T07:25:55;5.90;;;3.80;;
55684;SDS011;41883;49.544;8.646;2023-05-17T07:28:21;6.05;;;3.08;;
55684;SDS011;41883;49.544;8.646;2023-05-17T07:30:46;6.87;;;3.00;;
55684;SDS011;41883;49.544;8.646;2023-05-17T07:33:11;5.93;;;2.83;;
55684;SDS011;41883;49.544;8.646;2023-05-17T07:35:36;6.82;;;2.97;;
55684;SDS011;41883;49.544;8.646;2023-05-17T07:38:02;6.65;;;2.90;;
55684;SDS011;41883;49.544;8.646;2023-05-17T07:40:27;7.43;;;3.40;;
55684;SDS011;41883;49.544;8.646;2023-05-17T07:42:53;8.27;;;2.97;;
55684;SDS011;41883;49.544;8.646;2023-05-17T07:45:18;8.43;;;3.17;;
55684;SDS011;41883;49.544;8.646;2023-05-17T07:47:44;6.03;;;3.10;;
55684;SDS011;41883;49.544;8.646;2023-05-17T07:50:09;6.70;;;3.25;;
55684;SDS011;41883;49.544;8.646;2023-05-17T07:52:34;7.72;;;3.80;;
55684;SDS011;41883;49.544;8.646;2023-05-17T07:55:00;6.93;;;2.78;;
55684;SDS011;41883;49.544;8.646;2023-05-17T07:57:25;6.68;;;2.88;;
55684;SDS011;41883;49.544;8.646;2023-05-17T07:59:51;7.13;;;3.45;;
55684;SDS011;41883;49.544;8.646;2023-05-17T08:02:16;5.90;;;2.97;;
55684;SDS011;41883;49.544;8.646;2023-05-17T08:04:42;7.93;;;3.20;;
55684;SDS011;41883;49.544;8.646;2023-05-17T08:07:07;8.25;;;3.47;;
55684;SDS011;41883;49.544;8.646;2023-05-17T08:09:32;7.30;;;3.20;;
55684;SDS011;41883;49.544;8.646;2023-05-17T08:11:57;9.23;;;3.25;;
55684;SDS011;41883;49.544;8.646;2023-05-17T08:14:23;5.57;;;3.13;;
55684;SDS011;41883;49.544;8.646;2023-05-17T08:16:51;5.13;;;2.90;;
55684;SDS011;41883;49.544;8.646;2023-05-17T08:19:16;6.78;;;3.15;;
55684;SDS011;41883;49.544;8.646;2023-05-17T08:21:42;8.70;;;3.35;;
55684;SDS011;41883;49.544;8.646;2023-05-17T08:24:08;8.05;;;3.40;;
55684;SDS011;41883;49.544;8.646;2023-05-17T08:26:34;7.03;;;3.30;;
55684;SDS011;41883;49.544;8.646;2023-05-17T08:29:00;7.30;;;3.38;;
55684;SDS011;41883;49.544;8.646;2023-05-17T08:31:26;6.22;;;3.05;;
55684;SDS011;41883;49.544;8.646;2023-05-17T08:33:52;5.35;;;2.90;;
55684;SDS011;41883;49.544;8.646;2023-05-17T08:36:17;7.43;;;3.15;;
55684;SDS011;41883;49.544;8.646;2023-05-17T08:38:43;6.93;;;2.92;;
55684;SDS011;41883;49.544;8.646;2023-05-17T08:41:08;7.35;;;3.00;;
55684;SDS011;41883;49.544;8.646;2023-05-17T08:43:33;6.32;;;2.97;;
55684;SDS011;41883;49.544;8.646;2023-05-17T08:45:59;6.75;;;3.20;;
55684;SDS011;41883;49.544;8.646;2023-05-17T08:48:25;5.60;;;2.78;;
55684;SDS011;41883;49.544;8.646;2023-05-17T08:50:51;6.25;;;2.78;;
55684;SDS011;41883;49.544;8.646;2023-05-17T08:53:18;4.88;;;2.85;;
55684;SDS011;41883;49.544;8.646;2023-05-17T08:55:44;8.60;;;3.08;;
55684;SDS011;41883;49.544;8.646;2023-05-17T08:58:18;5.13;;;2.40;;
55684;SDS011;41883;49.544;8.646;2023-05-17T09:00:46;5.82;;;2.65;;
55684;SDS011;41883;49.544;8.646;2023-05-17T09:03:15;7.97;;;3.20;;
55684;SDS011;41883;49.544;8.646;2023-05-17T09:05:45;5.75;;;2.13;;
55684;SDS011;41883;49.544;8.646;2023-05-17T09:08:10;8.40;;;2.75;;
55684;SDS011;41883;49.544;8.646;2023-05-17T09:10:38;5.45;;;2.47;;
55684;SDS011;41883;49.544;8.646;2023-05-17T09:13:05;6.38;;;2.53;;
55684;SDS011;41883;49.544;8.646;2023-05-17T09:15:30;7.05;;;2.40;;
55684;SDS011;41883;49.544;8.646;2023-05-17T09:17:58;7.13;;;2.42;;
55684;SDS011;41883;49.544;8.646;2023-05-17T09:20:24;4.93;;;2.20;;
55684;SDS011;41883;49.544;8.646;2023-05-17T09:22:58;3.75;;;2.15;;
55684;SDS011;41883;49.544;8.646;2023-05-17T09:25:24;4.90;;;2.50;;
55684;SDS011;41883;49.544;8.646;2023-05-17T09:27:52;4.18;;;2.08;;
55684;SDS011;41883;49.544;8.646;2023-05-17T09:30:18;4.25;;;2.22;;
55684;SDS011;41883;49.544;8.646;2023-05-17T09:32:44;4.15;;;2.03;;
55684;SDS011;41883;49.544;8.646;2023-05-17T09:35:12;4.65;;;2.30;;
55684;SDS011;41883;49.544;8.646;2023-05-17T09:37:38;4.15;;;2.28;;
55684;SDS011;41883;49.544;8.646;2023-05-17T09:40:03;4.57;;;2.00;;
55684;SDS011;41883;49.544;8.646;2023-05-17T09:42:31;4.90;;;2.58;;
55684;SDS011;41883;49.544;8.646;2023-05-17T09:45:03;3.65;;;2.05;;
55684;SDS011;41883;49.544;8.646;2023-05-17T09:47:29;4.07;;;2.03;;
55684;SDS011;41883;49.544;8.646;2023-05-17T09:49:55;4.07;;;2.10;;
55684;SDS011;41883;49.544;8.646;2023-05-17T09:52:22;4.38;;;2.03;;
55684;SDS011;41883;49.544;8.646;2023-05-17T09:54:55;5.15;;;2.13;;
55684;SDS011;41883;49.544;8.646;2023-05-17T09:57:24;5.38;;;2.00;;
55684;SDS011;41883;49.544;8.646;2023-05-17T09:59:52;3.70;;;2.00;;
55684;SDS011;41883;49.544;8.646;2023-05-17T10:02:20;5.80;;;2.28;;
55684;SDS011;41883;49.544;8.646;2023-05-17T10:04:50;4.43;;;1.77;;
55684;SDS011;41883;49.544;8.646;2023-05-17T10:07:19;3.10;;;1.85;;
55684;SDS011;41883;49.544;8.646;2023-05-17T10:09:48;4.85;;;2.30;;
55684;SDS011;41883;49.544;8.646;2023-05-17T10:12:15;5.88;;;2.28;;
55684;SDS011;41883;49.544;8.646;2023-05-17T10:14:48;5.72;;;2.40;;
55684;SDS011;41883;49.544;8.646;2023-05-17T10:17:15;5.03;;;2.00;;
55684;SDS011;41883;49.544;8.646;2023-05-17T10:19:42;5.40;;;2.53;;
55684;SDS011;41883;49.544;8.646;2023-05-17T10:22:07;4.68;;;2.25;;
55684;SDS011;41883;49.544;8.646;2023-05-17T10:24:33;6.30;;;2.15;;
55684;SDS011;41883;49.544;8.646;2023-05-17T10:27:01;6.22;;;2.50;;
55684;SDS011;41883;49.544;8.646;2023-05-17T10:29:27;5.32;;;2.30;;
55684;SDS011;41883;49.544;8.646;2023-05-17T10:31:55;4.10;;;2.20;;
55684;SDS011;41883;49.544;8.646;2023-05-17T10:34:22;4.50;;;2.05;;
55684;SDS011;41883;49.544;8.646;2023-05-17T10:36:51;4.65;;;2.40;;
55684;SDS011;41883;49.544;8.646;2023-05-17T10:39:18;5.80;;;2.50;;
55684;SDS011;41883;49.544;8.646;2023-05-17T10:41:45;4.38;;;2.40;;
55684;SDS011;41883;49.544;8.646;2023-05-17T10:44:14;5.82;;;2.20;;
55684;SDS011;41883;49.544;8.646;2023-05-17T10:46:49;5.07;;;2.40;;
55684;SDS011;41883;49.544;8.646;2023-05-17T10:49:18;5.70;;;2.60;;
55684;SDS011;41883;49.544;8.646;2023-05-17T10:51:44;6.20;;;2.33;;
55684;SDS011;41883;49.544;8.646;2023-05-17T10:54:13;5.70;;;2.15;;
55684;SDS011;41883;49.544;8.646;2023-05-17T10:56:51;4.50;;;2.22;;
55684;SDS011;41883;49.544;8.646;2023-05-17T10:59:27;7.82;;;2.95;;
55684;SDS011;41883;49.544;8.646;2023-05-17T11:04:31;5.30;;;2.00;;
55684;SDS011;41883;49.544;8.646;2023-05-17T11:07:40;5.25;;;2.35;;
55684;SDS011;41883;49.544;8.646;2023-05-17T11:10:13;4.75;;;2.10;;
55684;SDS011;41883;49.544;8.646;2023-05-17T11:13:02;4.75;;;2.30;;
55684;SDS011;41883;49.544;8.646;2023-05-17T11:16:01;5.18;;;2.22;;
55684;SDS011;41883;49.544;8.646;2023-05-17T11:21:21;4.43;;;1.80;;
55684;SDS011;41883;49.544;8.646;2023-05-17T11:23:47;5.97;;;2.03;;
55684;SDS011;41883;49.544;8.646;2023-05-17T11:26:21;4.18;;;2.28;;
55684;SDS011;41883;49.544;8.646;2023-05-17T11:28:59;4.15;;;2.10;;
55684;SDS011;41883;49.544;8.646;2023-05-17T11:31:33;7.53;;;2.40;;
55684;SDS011;41883;49.544;8.646;2023-05-17T11:34:01;4.88;;;2.30;;
55684;SDS011;41883;49.544;8.646;2023-05-17T11:36:27;4.43;;;2.40;;
55684;SDS011;41883;49.544;8.646;2023-05-17T11:39:11;5.95;;;2.63;;
55684;SDS011;41883;49.544;8.646;2023-05-17T11:41:39;6.63;;;2.47;;
55684;SDS011;41883;49.544;8.646;2023-05-17T11:44:11;5.47;;;2.30;;
55684;SDS011;41883;49.544;8.646;2023-05-17T11:46:37;5.25;;;2.15;;
55684;SDS011;41883;49.544;8.646;2023-05-17T11:49:07;6.30;;;2.50;;
55684;SDS011;41883;49.544;8.646;2023-05-17T11:51:33;5.22;;;2.13;;
55684;SDS011;41883;49.544;8.646;2023-05-17T11:53:58;5.28;;;2.45;;
55684;SDS011;41883;49.544;8.646;2023-05-17T11:56:37;6.70;;;2.17;;
55684;SDS011;41883;49.544;8.646;2023-05-17T11:59:05;29.45;;;4.78;;
55684;SDS011;41883;49.544;8.646;2023-05-17T12:01:46;4.25;;;2.35;;
55684;SDS011;41883;49.544;8.646;2023-05-17T12:04:12;5.25;;;2.72;;
55684;SDS011;41883;49.544;8.646;2023-05-17T12:06:38;4.88;;;2.28;;
55684;SDS011;41883;49.544;8.646;2023-05-17T12:09:04;4.65;;;2.13;;
55684;SDS011;41883;49.544;8.646;2023-05-17T12:11:35;5.53;;;2.03;;
55684;SDS011;41883;49.544;8.646;2023-05-17T12:14:03;6.20;;;2.30;;
55684;SDS011;41883;49.544;8.646;2023-05-17T12:16:28;4.15;;;2.00;;
55684;SDS011;41883;49.544;8.646;2023-05-17T12:18:56;4.53;;;2.17;;
55684;SDS011;41883;49.544;8.646;2023-05-17T12:21:23;4.20;;;2.15;;
55684;SDS011;41883;49.544;8.646;2023-05-17T12:23:51;4.55;;;2.20;;
55684;SDS011;41883;49.544;8.646;2023-05-17T12:26:18;6.53;;;2.88;;
55684;SDS011;41883;49.544;8.646;2023-05-17T12:31:25;3.92;;;1.98;;
55684;SDS011;41883;49.544;8.646;2023-05-17T12:33:53;6.07;;;2.28;;
55684;SDS011;41883;49.544;8.646;2023-05-17T12:36:20;7.93;;;2.55;;
55684;SDS011;41883;49.544;8.646;2023-05-17T12:38:46;4.78;;;2.22;;
55684;SDS011;41883;49.544;8.646;2023-05-17T12:41:12;5.30;;;2.80;;
55684;SDS011;41883;49.544;8.646;2023-05-17T12:43:42;5.63;;;2.20;;
55684;SDS011;41883;49.544;8.646;2023-05-17T12:46:10;4.53;;;2.10;;
55684;SDS011;41883;49.544;8.646;2023-05-17T12:48:37;4.57;;;2.30;;
55684;SDS011;41883;49.544;8.646;2023-05-17T12:53:52;4.55;;;2.30;;
55684;SDS011;41883;49.544;8.646;2023-05-17T12:56:19;6.70;;;2.80;;
55684;SDS011;41883;49.544;8.646;2023-05-17T13:01:45;5.80;;;2.40;;
55684;SDS011;41883;49.544;8.646;2023-05-17T13:04:12;5.15;;;2.30;;
55684;SDS011;41883;49.544;8.646;2023-05-17T13:06:49;5.45;;;2.40;;
55684;SDS011;41883;49.544;8.646;2023-05-17T13:09:16;6.72;;;2.40;;
55684;SDS011;41883;49.544;8.646;2023-05-17T13:11:52;4.45;;;2.03;;
55684;SDS011;41883;49.544;8.646;2023-05-17T13:17:08;3.95;;;1.80;;
55684;SDS011;41883;49.544;8.646;2023-05-17T13:19:35;5.68;;;2.20;;
55684;SDS011;41883;49.544;8.646;2023-05-17T13:22:01;6.05;;;2.88;;
55684;SDS011;41883;49.544;8.646;2023-05-17T13:24:29;8.05;;;3.05;;
55684;SDS011;41883;49.544;8.646;2023-05-17T13:26:57;4.60;;;2.03;;
55684;SDS011;41883;49.544;8.646;2023-05-17T13:29:23;5.93;;;2.10;;
55684;SDS011;41883;49.544;8.646;2023-05-17T13:31:48;4.05;;;1.80;;
55684;SDS011;41883;49.544;8.646;2023-05-17T13:34:14;5.13;;;2.03;;
55684;SDS011;41883;49.544;8.646;2023-05-17T13:36:40;4.68;;;2.20;;
55684;SDS011;41883;49.544;8.646;2023-05-17T13:39:06;5.03;;;2.50;;
55684;SDS011;41883;49.544;8.646;2023-05-17T13:41:31;6.43;;;2.17;;
55684;SDS011;41883;49.544;8.646;2023-05-17T13:43:56;5.70;;;2.88;;
55684;SDS011;41883;49.544;8.646;2023-05-17T13:46:22;4.97;;;2.38;;
55684;SDS011;41883;49.544;8.646;2023-05-17T13:48:50;6.82;;;2.47;;
55684;SDS011;41883;49.544;8.646;2023-05-17T13:51:24;6.07;;;2.47;;
55684;SDS011;41883;49.544;8.646;2023-05-17T13:53:50;5.20;;;2.25;;
55684;SDS011;41883;49.544;8.646;2023-05-17T13:56:16;4.50;;;2.17;;
55684;SDS011;41883;49.544;8.646;2023-05-17T13:58:42;6.03;;;2.40;;
55684;SDS011;41883;49.544;8.646;2023-05-17T14:01:07;6.20;;;2.47;;
55684;SDS011;41883;49.544;8.646;2023-05-17T14:03:33;3.90;;;2.20;;
55684;SDS011;41883;49.544;8.646;2023-05-17T14:05:59;4.63;;;2.40;;
55684;SDS011;41883;49.544;8.646;2023-05-17T14:08:24;4.57;;;2.00;;
55684;SDS011;41883;49.544;8.646;2023-05-17T14:10:50;5.43;;;2.10;;
55684;SDS011;41883;49.544;8.646;2023-05-17T14:13:16;4.68;;;2.03;;
55684;SDS011;41883;49.544;8.646;2023-05-17T14:15:44;5.57;;;2.08;;
55684;SDS011;41883;49.544;8.646;2023-05-17T14:18:10;5.40;;;2.35;;
55684;SDS011;41883;49.544;8.646;2023-05-17T14:20:35;5.80;;;1.95;;
55684;SDS011;41883;49.544;8.646;2023-05-17T14:23:01;5.60;;;2.28;;
55684;SDS011;41883;49.544;8.646;2023-05-17T14:25:26;4.88;;;2.30;;
55684;SDS011;41883;49.544;8.646;2023-05-17T14:27:52;6.95;;;2.25;;
55684;SDS011;41883;49.544;8.646;2023-05-17T14:30:17;4.88;;;2.33;;
55684;SDS011;41883;49.544;8.646;2023-05-17T14:32:43;5.43;;;2.70;;
55684;SDS011;41883;49.544;8.646;2023-05-17T14:35:13;6.97;;;2.38;;
55684;SDS011;41883;49.544;8.646;2023-05-17T14:37:40;7.35;;;2.50;;
55684;SDS011;41883;49.544;8.646;2023-05-17T14:40:05;6.88;;;2.30;;
55684;SDS011;41883;49.544;8.646;2023-05-17T14:42:31;4.40;;;1.90;;
55684;SDS011;41883;49.544;8.646;2023-05-17T14:44:56;4.28;;;2.20;;
55684;SDS011;41883;49.544;8.646;2023-05-17T14:47:22;4.80;;;2.20;;
55684;SDS011;41883;49.544;8.646;2023-05-17T14:49:47;4.85;;;2.00;;
55684;SDS011;41883;49.544;8.646;2023-05-17T14:52:13;4.88;;;1.90;;
55684;SDS011;41883;49.544;8.646;2023-05-17T14:54:39;6.95;;;2.30;;
55684;SDS011;41883;49.544;8.646;2023-05-17T14:57:05;5.78;;;2.72;;
55684;SDS011;41883;49.544;8.646;2023-05-17T14:59:30;6.65;;;2.30;;
55684;SDS011;41883;49.544;8.646;2023-05-17T15:01:56;5.32;;;2.38;;
55684;SDS011;41883;49.544;8.646;2023-05-17T15:04:21;5.03;;;2.13;;
55684;SDS011;41883;49.544;8.646;2023-05-17T15:06:47;5.97;;;2.03;;
55684;SDS011;41883;49.544;8.646;2023-05-17T15:09:12;4.50;;;1.70;;
55684;SDS011;41883;49.544;8.646;2023-05-17T15:11:41;5.97;;;2.17;;
55684;SDS011;41883;49.544;8.646;2023-05-17T15:14:06;5.82;;;2.13;;
55684;SDS011;41883;49.544;8.646;2023-05-17T15:16:32;6.13;;;1.83;;
55684;SDS011;41883;49.544;8.646;2023-05-17T15:18:58;5.95;;;2.30;;
55684;SDS011;41883;49.544;8.646;2023-05-17T15:21:23;3.90;;;1.92;;
55684;SDS011;41883;49.544;8.646;2023-05-17T15:23:49;7.15;;;2.08;;
55684;SDS011;41883;49.544;8.646;2023-05-17T15:26:15;4.20;;;2.05;;
55684;SDS011;41883;49.544;8.646;2023-05-17T15:28:41;6.78;;;1.98;;
55684;SDS011;41883;49.544;8.646;2023-05-17T15:31:07;5.18;;;1.80;;
55684;SDS011;41883;49.544;8.646;2023-05-17T15:33:35;5.57;;;2.55;;
55684;SDS011;41883;49.544;8.646;2023-05-17T15:36:07;4.93;;;2.00;;
55684;SDS011;41883;49.544;8.646;2023-05-17T15:38:33;5.38;;;1.85;;
55684;SDS011;41883;49.544;8.646;2023-05-17T15:41:02;4.95;;;1.80;;
55684;SDS011;41883;49.544;8.646;2023-05-17T15:43:28;5.47;;;1.50;;
55684;SDS011;41883;49.544;8.646;2023-05-17T15:45:54;4.82;;;1.80;;
55684;SDS011;41883;49.544;8.646;2023-05-17T15:48:20;5.82;;;1.83;;
55684;SDS011;41883;49.544;8.646;2023-05-17T15:50:47;4.43;;;1.70;;
55684;SDS011;41883;49.544;8.646;2023-05-17T15:53:13;3.80;;;1.95;;
55684;SDS011;41883;49.544;8.646;2023-05-17T15:55:38;4.85;;;1.73;;
55684;SDS011;41883;49.544;8.646;2023-05-17T15:58:04;4.25;;;1.73;;
55684;SDS011;41883;49.544;8.646;2023-05-17T16:00:31;5.45;;;2.00;;
55684;SDS011;41883;49.544;8.646;2023-05-17T16:02:57;4.75;;;1.95;;
55684;SDS011;41883;49.544;8.646;2023-05-17T16:05:23;4.03;;;1.60;;
55684;SDS011;41883;49.544;8.646;2023-05-17T16:07:52;4.80;;;1.90;;
55684;SDS011;41883;49.544;8.646;2023-05-17T16:10:18;4.78;;;2.10;;
55684;SDS011;41883;49.544;8.646;2023-05-17T16:12:43;6.00;;;2.22;;
55684;SDS011;41883;49.544;8.646;2023-05-17T16:15:11;4.13;;;1.63;;